sensor_id;sensor_type;location;lat;lon;timestamp;pressure;altitude;pressure_sealevel;temperature;humidity
14790;BME280;7486;51.010;10.366;2023-04-01T00:02:07;96459.25;;;5.80;86.12
14790;BME280;7486;51.010;10.366;2023-04-01T00:04:53;96455.91;;;5.91;85.10
14790;BME280;7486;51.010;10.366;2023-04-01T00:07:39;96455.63;;;5.81;84.96
14790;BME280;7486;51.010;10.366;2023-04-01T00:10:25;96450.44;;;5.74;85.44
14790;BME280;7486;51.010;10.366;2023-04-01T00:13:10;96404.78;;;5.32;85.56
14790;BME280;7486;51.010;10.366;2023-04-01T00:15:55;96462.31;;;5.77;84.87
14790;BME280;7486;51.010;10.366;2023-04-01T00:18:41;96455.16;;;5.65;85.66
14790;BME280;7486;51.010;10.366;2023-04-01T00:21:27;96451.31;;;5.86;84.42
14790;BME280;7486;51.010;10.366;2023-04-01T00:24:12;96461.72;;;5.93;84.71
14790;BME280;7486;51.010;10.366;2023-04-01T00:26:58;96441.00;;;5.66;84.47
14790;BME280;7486;51.010;10.366;2023-04-01T00:29:44;96445.91;;;5.81;84.79
14790;BME280;7486;51.010;10.366;2023-04-01T00:32:30;96450.72;;;5.84;83.92
14790;BME280;7486;51.010;10.366;2023-04-01T00:35:15;96424.88;;;5.63;84.56
14790;BME280;7486;51.010;10.366;2023-04-01T00:38:01;96428.03;;;5.72;83.46
14790;BME280;7486;51.010;10.366;2023-04-01T00:40:46;96447.28;;;5.65;84.82
14790;BME280;7486;51.010;10.366;2023-04-01T00:43:32;96395.25;;;5.38;84.68
14790;BME280;7486;51.010;10.366;2023-04-01T00:46:18;96443.50;;;5.80;84.49
14790;BME280;7486;51.010;10.366;2023-04-01T00:49:04;96441.16;;;5.90;84.04
14790;BME280;7486;51.010;10.366;2023-04-01T00:51:53;96445.38;;;5.73;84.84
14790;BME280;7486;51.010;10.366;2023-04-01T00:54:47;96443.06;;;5.64;84.81
14790;BME280;7486;51.010;10.366;2023-04-01T00:57:37;96442.88;;;5.41;86.37
14790;BME280;7486;51.010;10.366;2023-04-01T01:00:24;96441.78;;;5.49;86.58
14790;BME280;7486;51.010;10.366;2023-04-01T01:03:09;96435.72;;;5.48;86.48
14790;BME280;7486;51.010;10.366;2023-04-01T01:12:13;96381.63;;;5.29;86.02
14790;BME280;7486;51.010;10.366;2023-04-01T01:18:18;96440.00;;;5.67;85.02
14790;BME280;7486;51.010;10.366;2023-04-01T01:21:16;96445.38;;;5.54;86.12
14790;BME280;7486;51.010;10.366;2023-04-01T01:24:35;96445.50;;;5.41;86.50
14790;BME280;7486;51.010;10.366;2023-04-01T01:27:26;96434.16;;;5.47;86.20
14790;BME280;7486;51.010;10.366;2023-04-01T01:37:12;96438.09;;;5.56;85.74
14790;BME280;7486;51.010;10.366;2023-04-01T01:40:03;96433.09;;;5.48;85.65
14790;BME280;7486;51.010;10.366;2023-04-01T01:42:54;96430.66;;;5.72;84.75
14790;BME280;7486;51.010;10.366;2023-04-01T01:45:46;96435.47;;;5.75;84.16
14790;BME280;7486;51.010;10.366;2023-04-01T01:48:34;96424.66;;;5.83;84.10
14790;BME280;7486;51.010;10.366;2023-04-01T01:51:21;96428.31;;;5.63;84.48
14790;BME280;7486;51.010;10.366;2023-04-01T01:54:12;96443.41;;;5.50;85.65
14790;BME280;7486;51.010;10.366;2023-04-01T01:57:09;96440.69;;;5.38;86.32
14790;BME280;7486;51.010;10.366;2023-04-01T02:00:05;96419.22;;;5.23;86.75
14790;BME280;7486;51.010;10.366;2023-04-01T02:02:57;96432.66;;;5.33;87.19
14790;BME280;7486;51.010;10.366;2023-04-01T02:05:44;96434.03;;;5.36;87.63
14790;BME280;7486;51.010;10.366;2023-04-01T02:08:35;96440.31;;;5.35;88.00
14790;BME280;7486;51.010;10.366;2023-04-01T02:11:27;96441.06;;;5.42;87.66
14790;BME280;7486;51.010;10.366;2023-04-01T02:14:22;96434.09;;;5.29;87.98
14790;BME280;7486;51.010;10.366;2023-04-01T02:17:17;96433.22;;;5.17;88.76
14790;BME280;7486;51.010;10.366;2023-04-01T02:20:07;96427.97;;;5.10;89.34
14790;BME280;7486;51.010;10.366;2023-04-01T02:22:56;96432.81;;;5.13;89.43
14790;BME280;7486;51.010;10.366;2023-04-01T02:25:43;96421.94;;;5.10;89.79
14790;BME280;7486;51.010;10.366;2023-04-01T02:28:31;96429.84;;;5.03;89.95
14790;BME280;7486;51.010;10.366;2023-04-01T02:31:17;96438.53;;;5.04;90.29
14790;BME280;7486;51.010;10.366;2023-04-01T02:34:02;96439.75;;;5.01;90.93
14790;BME280;7486;51.010;10.366;2023-04-01T02:36:49;96438.47;;;5.10;90.15
14790;BME280;7486;51.010;10.366;2023-04-01T02:39:35;96434.03;;;5.11;90.46
14790;BME280;7486;51.010;10.366;2023-04-01T02:42:20;96439.50;;;5.09;90.69
14790;BME280;7486;51.010;10.366;2023-04-01T02:45:07;96439.25;;;5.17;90.18
14790;BME280;7486;51.010;10.366;2023-04-01T02:47:52;96440.53;;;5.33;89.13
14790;BME280;7486;51.010;10.366;2023-04-01T02:50:38;96436.53;;;5.49;88.77
14790;BME280;7486;51.010;10.366;2023-04-01T02:53:23;96443.53;;;5.55;87.25
14790;BME280;7486;51.010;10.366;2023-04-01T02:56:09;96441.84;;;5.42;87.75
14790;BME280;7486;51.010;10.366;2023-04-01T02:58:55;96445.59;;;5.53;86.59
14790;BME280;7486;51.010;10.366;2023-04-01T03:01:41;96451.50;;;5.48;86.90
14790;BME280;7486;51.010;10.366;2023-04-01T03:04:26;96445.75;;;5.58;86.05
14790;BME280;7486;51.010;10.366;2023-04-01T03:07:11;96449.47;;;5.50;85.81
14790;BME280;7486;51.010;10.366;2023-04-01T03:09:56;96443.66;;;5.24;86.55
14790;BME280;7486;51.010;10.366;2023-04-01T03:12:42;96429.66;;;5.30;86.13
14790;BME280;7486;51.010;10.366;2023-04-01T03:15:27;96440.44;;;5.22;86.77
14790;BME280;7486;51.010;10.366;2023-04-01T03:18:12;96436.47;;;5.37;85.89
14790;BME280;7486;51.010;10.366;2023-04-01T03:21:12;96435.63;;;5.12;86.40
14790;BME280;7486;51.010;10.366;2023-04-01T03:23:58;96440.88;;;5.12;87.92
14790;BME280;7486;51.010;10.366;2023-04-01T03:26:43;96438.78;;;5.27;87.06
14790;BME280;7486;51.010;10.366;2023-04-01T03:29:29;96441.19;;;5.29;86.57
14790;BME280;7486;51.010;10.366;2023-04-01T03:32:14;96426.75;;;5.13;86.91
14790;BME280;7486;51.010;10.366;2023-04-01T03:35:00;96426.72;;;5.20;86.19
14790;BME280;7486;51.010;10.366;2023-04-01T03:37:45;96431.81;;;5.14;86.48
14790;BME280;7486;51.010;10.366;2023-04-01T03:40:31;96433.66;;;5.07;86.41
14790;BME280;7486;51.010;10.366;2023-04-01T03:43:17;96428.25;;;5.02;86.62
14790;BME280;7486;51.010;10.366;2023-04-01T03:46:02;96438.94;;;5.01;86.80
14790;BME280;7486;51.010;10.366;2023-04-01T03:48:48;96436.56;;;4.99;87.03
14790;BME280;7486;51.010;10.366;2023-04-01T03:51:34;96422.13;;;4.84;87.13
14790;BME280;7486;51.010;10.366;2023-04-01T03:54:19;96432.31;;;4.98;87.19
14790;BME280;7486;51.010;10.366;2023-04-01T03:57:05;96433.75;;;4.94;86.82
14790;BME280;7486;51.010;10.366;2023-04-01T03:59:51;96443.44;;;4.94;86.78
14790;BME280;7486;51.010;10.366;2023-04-01T04:02:36;96442.75;;;5.05;86.08
14790;BME280;7486;51.010;10.366;2023-04-01T04:05:23;96386.28;;;4.46;86.58
14790;BME280;7486;51.010;10.366;2023-04-01T04:08:08;96452.03;;;4.76;88.03
14790;BME280;7486;51.010;10.366;2023-04-01T04:10:55;96454.25;;;5.04;87.74
14790;BME280;7486;51.010;10.366;2023-04-01T04:13:41;96455.78;;;5.18;86.58
14790;BME280;7486;51.010;10.366;2023-04-01T04:16:27;96438.81;;;5.21;85.61
14790;BME280;7486;51.010;10.366;2023-04-01T04:19:17;96457.28;;;5.32;85.14
14790;BME280;7486;51.010;10.366;2023-04-01T04:22:03;96459.88;;;5.14;86.54
14790;BME280;7486;51.010;10.366;2023-04-01T04:24:48;96462.72;;;5.37;85.67
14790;BME280;7486;51.010;10.366;2023-04-01T04:27:34;96458.75;;;5.28;85.79
14790;BME280;7486;51.010;10.366;2023-04-01T04:30:28;96469.16;;;5.16;85.62
14790;BME280;7486;51.010;10.366;2023-04-01T04:33:14;96467.69;;;5.21;85.32
14790;BME280;7486;51.010;10.366;2023-04-01T04:36:00;96397.28;;;4.61;86.56
14790;BME280;7486;51.010;10.366;2023-04-01T04:38:46;96474.72;;;4.95;86.55
14790;BME280;7486;51.010;10.366;2023-04-01T04:41:31;96474.13;;;4.93;86.59
14790;BME280;7486;51.010;10.366;2023-04-01T04:44:17;96478.72;;;4.98;86.29
14790;BME280;7486;51.010;10.366;2023-04-01T04:47:03;96390.75;;;4.71;85.65
14790;BME280;7486;51.010;10.366;2023-04-01T04:49:48;96482.41;;;5.22;85.85
14790;BME280;7486;51.010;10.366;2023-04-01T04:52:34;96472.44;;;5.05;85.61
14790;BME280;7486;51.010;10.366;2023-04-01T04:55:19;96476.88;;;5.05;86.31
14790;BME280;7486;51.010;10.366;2023-04-01T04:58:10;96479.66;;;5.16;86.08
14790;BME280;7486;51.010;10.366;2023-04-01T05:00:59;96487.94;;;5.07;86.37
14790;BME280;7486;51.010;10.366;2023-04-01T05:03:48;96425.75;;;4.89;85.06
14790;BME280;7486;51.010;10.366;2023-04-01T05:06:33;96491.69;;;5.24;83.98
14790;BME280;7486;51.010;10.366;2023-04-01T05:09:18;96488.53;;;5.15;84.54
14790;BME280;7486;51.010;10.366;2023-04-01T05:12:04;96418.56;;;4.78;84.82
14790;BME280;7486;51.010;10.366;2023-04-01T05:15:08;96448.53;;;4.89;85.05
14790;BME280;7486;51.010;10.366;2023-04-01T05:17:55;96482.03;;;5.18;84.61
14790;BME280;7486;51.010;10.366;2023-04-01T05:20:49;96481.94;;;5.31;83.24
14790;BME280;7486;51.010;10.366;2023-04-01T05:23:36;96477.97;;;5.22;84.00
14790;BME280;7486;51.010;10.366;2023-04-01T05:26:21;96477.59;;;5.18;83.97
14790;BME280;7486;51.010;10.366;2023-04-01T05:29:06;96466.13;;;5.38;83.38
14790;BME280;7486;51.010;10.366;2023-04-01T05:31:52;96471.78;;;5.59;82.26
14790;BME280;7486;51.010;10.366;2023-04-01T05:34:38;96481.47;;;5.41;83.37
14790;BME280;7486;51.010;10.366;2023-04-01T05:37:24;96475.41;;;5.40;83.26
14790;BME280;7486;51.010;10.366;2023-04-01T05:40:09;96483.28;;;5.40;83.36
14790;BME280;7486;51.010;10.366;2023-04-01T05:42:55;96486.28;;;5.44;82.85
14790;BME280;7486;51.010;10.366;2023-04-01T05:45:41;96461.25;;;5.41;82.25
14790;BME280;7486;51.010;10.366;2023-04-01T05:48:33;96481.84;;;5.44;81.83
14790;BME280;7486;51.010;10.366;2023-04-01T05:51:19;96477.78;;;5.66;82.20
14790;BME280;7486;51.010;10.366;2023-04-01T05:54:05;96486.22;;;5.50;82.05
14790;BME280;7486;51.010;10.366;2023-04-01T05:56:51;96489.03;;;5.74;82.71
14790;BME280;7486;51.010;10.366;2023-04-01T05:59:37;96480.81;;;5.88;81.23
14790;BME280;7486;51.010;10.366;2023-04-01T06:02:23;96485.28;;;5.63;81.75
14790;BME280;7486;51.010;10.366;2023-04-01T06:05:17;96487.41;;;5.73;81.64
14790;BME280;7486;51.010;10.366;2023-04-01T06:08:09;96451.13;;;5.45;81.61
14790;BME280;7486;51.010;10.366;2023-04-01T06:17:24;96496.78;;;5.44;82.46
14790;BME280;7486;51.010;10.366;2023-04-01T06:20:42;96501.16;;;5.50;82.86
14790;BME280;7486;51.010;10.366;2023-04-01T06:30:47;96495.91;;;5.75;81.46
14790;BME280;7486;51.010;10.366;2023-04-01T06:33:23;96499.28;;;5.57;82.23
14790;BME280;7486;51.010;10.366;2023-04-01T06:45:08;96506.09;;;5.64;81.99
14790;BME280;7486;51.010;10.366;2023-04-01T06:48:35;96505.03;;;5.90;81.42
14790;BME280;7486;51.010;10.366;2023-04-01T06:52:02;96497.31;;;5.95;81.05
14790;BME280;7486;51.010;10.366;2023-04-01T06:58:52;96500.78;;;5.89;81.30
14790;BME280;7486;51.010;10.366;2023-04-01T07:01:45;96505.63;;;5.92;80.96
14790;BME280;7486;51.010;10.366;2023-04-01T07:04:37;96502.44;;;5.65;83.50
14790;BME280;7486;51.010;10.366;2023-04-01T07:07:48;96510.69;;;5.69;83.73
14790;BME280;7486;51.010;10.366;2023-04-01T07:13:49;96508.91;;;5.88;82.83
14790;BME280;7486;51.010;10.366;2023-04-01T07:16:41;96515.47;;;5.97;82.62
14790;BME280;7486;51.010;10.366;2023-04-01T07:19:44;96505.47;;;6.05;81.95
14790;BME280;7486;51.010;10.366;2023-04-01T07:22:35;96482.03;;;5.86;82.05
14790;BME280;7486;51.010;10.366;2023-04-01T07:25:47;96498.59;;;5.68;82.91
14790;BME280;7486;51.010;10.366;2023-04-01T07:28:58;96518.41;;;5.64;83.91
14790;BME280;7486;51.010;10.366;2023-04-01T07:38:15;96522.09;;;5.99;82.98
14790;BME280;7486;51.010;10.366;2023-04-01T07:41:23;96508.03;;;6.12;83.69
14790;BME280;7486;51.010;10.366;2023-04-01T07:45:04;96519.78;;;6.28;83.46
14790;BME280;7486;51.010;10.366;2023-04-01T07:51:06;96517.09;;;6.16;84.76
14790;BME280;7486;51.010;10.366;2023-04-01T08:00:05;96520.88;;;6.68;81.61
14790;BME280;7486;51.010;10.366;2023-04-01T08:16:10;96502.53;;;6.50;82.88
14790;BME280;7486;51.010;10.366;2023-04-01T08:19:21;96537.28;;;6.52;83.57
14790;BME280;7486;51.010;10.366;2023-04-01T08:23:04;96540.28;;;6.74;83.75
14790;BME280;7486;51.010;10.366;2023-04-01T08:25:31;96541.44;;;6.59;82.94
14790;BME280;7486;51.010;10.366;2023-04-01T08:28:24;96541.16;;;6.49;83.14
14790;BME280;7486;51.010;10.366;2023-04-01T08:34:16;96543.00;;;6.49;85.64
14790;BME280;7486;51.010;10.366;2023-04-01T08:37:24;96540.16;;;6.50;83.87
14790;BME280;7486;51.010;10.366;2023-04-01T08:41:16;96541.31;;;6.18;84.60
14790;BME280;7486;51.010;10.366;2023-04-01T08:44:10;96536.72;;;6.32;85.71
14790;BME280;7486;51.010;10.366;2023-04-01T08:50:39;96544.25;;;6.46;84.19
14790;BME280;7486;51.010;10.366;2023-04-01T08:57:29;96550.22;;;6.53;83.80
14790;BME280;7486;51.010;10.366;2023-04-01T09:00:46;96548.09;;;6.62;83.43
14790;BME280;7486;51.010;10.366;2023-04-01T09:03:57;96545.91;;;6.77;83.61
14790;BME280;7486;51.010;10.366;2023-04-01T09:07:05;96545.91;;;7.07;83.96
14790;BME280;7486;51.010;10.366;2023-04-01T09:10:11;96552.97;;;6.95;83.86
14790;BME280;7486;51.010;10.366;2023-04-01T09:13:38;96551.06;;;7.02;84.07
14790;BME280;7486;51.010;10.366;2023-04-01T09:22:42;96558.53;;;6.87;83.87
14790;BME280;7486;51.010;10.366;2023-04-01T09:29:37;96558.31;;;7.18;82.27
14790;BME280;7486;51.010;10.366;2023-04-01T09:35:48;96555.72;;;7.41;79.65
14790;BME280;7486;51.010;10.366;2023-04-01T09:41:36;96539.69;;;7.31;79.70
14790;BME280;7486;51.010;10.366;2023-04-01T09:44:50;96569.66;;;7.30;79.34
14790;BME280;7486;51.010;10.366;2023-04-01T09:51:03;96575.16;;;7.29;80.99
14790;BME280;7486;51.010;10.366;2023-04-01T09:54:17;96573.28;;;7.59;79.27
14790;BME280;7486;51.010;10.366;2023-04-01T10:15:38;96586.34;;;7.65;82.34
14790;BME280;7486;51.010;10.366;2023-04-01T10:28:36;96592.09;;;7.86;80.54
14790;BME280;7486;51.010;10.366;2023-04-01T10:51:20;96581.47;;;7.81;81.33
14790;BME280;7486;51.010;10.366;2023-04-01T11:18:24;96585.81;;;8.45;76.67
14790;BME280;7486;51.010;10.366;2023-04-01T11:21:38;96582.03;;;8.29;79.06
14790;BME280;7486;51.010;10.366;2023-04-01T11:25:00;96589.38;;;8.27;78.40
14790;BME280;7486;51.010;10.366;2023-04-01T11:34:29;96602.09;;;8.07;80.14
14790;BME280;7486;51.010;10.366;2023-04-01T11:44:30;96602.66;;;7.86;81.00
14790;BME280;7486;51.010;10.366;2023-04-01T11:47:41;96604.69;;;7.72;81.02
14790;BME280;7486;51.010;10.366;2023-04-01T11:56:53;96605.63;;;7.89;80.64
14790;BME280;7486;51.010;10.366;2023-04-01T12:05:54;96618.03;;;8.12;82.78
14790;BME280;7486;51.010;10.366;2023-04-01T12:09:04;96616.66;;;8.44;81.57
14790;BME280;7486;51.010;10.366;2023-04-01T12:15:02;96628.03;;;8.45;80.67
14790;BME280;7486;51.010;10.366;2023-04-01T12:18:05;96623.78;;;8.09;82.08
14790;BME280;7486;51.010;10.366;2023-04-01T12:21:14;96625.94;;;8.00;83.53
14790;BME280;7486;51.010;10.366;2023-04-01T12:24:48;96626.53;;;8.49;83.21
14790;BME280;7486;51.010;10.366;2023-04-01T12:27:32;96627.81;;;8.35;83.47
14790;BME280;7486;51.010;10.366;2023-04-01T12:30:34;96629.06;;;8.32;82.95
14790;BME280;7486;51.010;10.366;2023-04-01T12:39:46;96624.69;;;8.49;82.91
14790;BME280;7486;51.010;10.366;2023-04-01T12:42:39;96634.16;;;8.73;84.12
14790;BME280;7486;51.010;10.366;2023-04-01T12:45:32;96628.84;;;8.97;81.06
14790;BME280;7486;51.010;10.366;2023-04-01T12:58:18;96625.63;;;8.95;77.07
14790;BME280;7486;51.010;10.366;2023-04-01T13:16:47;96635.91;;;8.80;78.02
14790;BME280;7486;51.010;10.366;2023-04-01T13:23:04;96646.94;;;8.77;76.45
14790;BME280;7486;51.010;10.366;2023-04-01T13:26:00;96659.91;;;8.55;79.14
14790;BME280;7486;51.010;10.366;2023-04-01T13:29:14;96655.78;;;8.59;79.46
14790;BME280;7486;51.010;10.366;2023-04-01T13:32:08;96659.91;;;8.20;81.82
14790;BME280;7486;51.010;10.366;2023-04-01T13:43:58;96670.75;;;8.00;85.10
14790;BME280;7486;51.010;10.366;2023-04-01T13:56:48;96677.59;;;8.66;82.74
14790;BME280;7486;51.010;10.366;2023-04-01T14:27:51;96683.31;;;8.63;82.24
14790;BME280;7486;51.010;10.366;2023-04-01T14:33:37;96692.03;;;8.40;84.70
14790;BME280;7486;51.010;10.366;2023-04-01T14:49:49;96694.88;;;8.73;82.79
14790;BME280;7486;51.010;10.366;2023-04-01T14:52:40;96699.13;;;8.75;83.01
14790;BME280;7486;51.010;10.366;2023-04-01T14:55:48;96702.25;;;8.71;83.89
14790;BME280;7486;51.010;10.366;2023-04-01T14:58:42;96700.06;;;8.68;83.09
14790;BME280;7486;51.010;10.366;2023-04-01T15:14:07;96715.53;;;8.53;82.89
14790;BME280;7486;51.010;10.366;2023-04-01T15:17:01;96713.97;;;8.52;82.69
14790;BME280;7486;51.010;10.366;2023-04-01T15:26:21;96731.16;;;8.32;84.60
14790;BME280;7486;51.010;10.366;2023-04-01T15:29:38;96733.44;;;8.40;84.37
14790;BME280;7486;51.010;10.366;2023-04-01T15:35:53;96732.25;;;8.12;87.22
14790;BME280;7486;51.010;10.366;2023-04-01T15:38:54;96734.59;;;8.44;86.39
14790;BME280;7486;51.010;10.366;2023-04-01T15:42:11;96745.03;;;8.73;84.50
14790;BME280;7486;51.010;10.366;2023-04-01T15:47:42;96741.13;;;8.41;84.23
14790;BME280;7486;51.010;10.366;2023-04-01T15:57:12;96744.81;;;8.52;85.35
14790;BME280;7486;51.010;10.366;2023-04-01T16:00:23;96759.41;;;8.66;84.41
14790;BME280;7486;51.010;10.366;2023-04-01T16:12:53;96771.88;;;9.17;83.05
14790;BME280;7486;51.010;10.366;2023-04-01T16:16:21;96765.94;;;8.87;82.64
14790;BME280;7486;51.010;10.366;2023-04-01T16:19:16;96772.34;;;9.02;82.56
14790;BME280;7486;51.010;10.366;2023-04-01T16:25:27;96772.72;;;8.83;83.35
14790;BME280;7486;51.010;10.366;2023-04-01T16:28:27;96768.91;;;8.79;83.10
14790;BME280;7486;51.010;10.366;2023-04-01T16:31:27;96769.94;;;8.78;83.48
14790;BME280;7486;51.010;10.366;2023-04-01T16:41:35;96792.78;;;8.84;83.57
14790;BME280;7486;51.010;10.366;2023-04-01T16:44:23;96771.22;;;8.75;83.16
14790;BME280;7486;51.010;10.366;2023-04-01T16:47:11;96792.44;;;8.68;84.19
14790;BME280;7486;51.010;10.366;2023-04-01T16:50:21;96794.47;;;8.66;83.90
14790;BME280;7486;51.010;10.366;2023-04-01T17:17:07;96830.97;;;8.16;84.99
14790;BME280;7486;51.010;10.366;2023-04-01T17:26:13;96842.69;;;8.02;85.15
14790;BME280;7486;51.010;10.366;2023-04-01T17:32:28;96851.00;;;7.88;85.63
14790;BME280;7486;51.010;10.366;2023-04-01T17:35:33;96860.16;;;7.85;85.60
14790;BME280;7486;51.010;10.366;2023-04-01T17:41:30;96874.56;;;8.01;85.76
14790;BME280;7486;51.010;10.366;2023-04-01T17:47:21;96876.31;;;8.25;82.87
14790;BME280;7486;51.010;10.366;2023-04-01T17:50:21;96881.34;;;8.08;83.24
14790;BME280;7486;51.010;10.366;2023-04-01T17:56:18;96897.66;;;7.87;85.40
14790;BME280;7486;51.010;10.366;2023-04-01T17:59:56;96904.31;;;7.90;84.41
14790;BME280;7486;51.010;10.366;2023-04-01T18:18:50;96934.06;;;8.15;83.12
14790;BME280;7486;51.010;10.366;2023-04-01T18:31:05;96944.75;;;8.20;81.63
14790;BME280;7486;51.010;10.366;2023-04-01T18:34:12;96956.59;;;7.93;82.91
14790;BME280;7486;51.010;10.366;2023-04-01T18:40:41;96959.44;;;7.91;83.22
14790;BME280;7486;51.010;10.366;2023-04-01T18:43:39;96963.13;;;7.90;83.50
14790;BME280;7486;51.010;10.366;2023-04-01T18:46:36;96974.16;;;7.99;83.22
14790;BME280;7486;51.010;10.366;2023-04-01T18:49:41;96957.41;;;7.93;82.87
14790;BME280;7486;51.010;10.366;2023-04-01T18:52:46;96972.25;;;8.06;82.85
14790;BME280;7486;51.010;10.366;2023-04-01T18:55:42;96980.97;;;7.88;83.06
14790;BME280;7486;51.010;10.366;2023-04-01T18:59:11;96985.81;;;7.91;83.31
14790;BME280;7486;51.010;10.366;2023-04-01T19:02:16;96996.50;;;7.96;83.05
14790;BME280;7486;51.010;10.366;2023-04-01T19:05:14;96999.13;;;7.78;84.07
14790;BME280;7486;51.010;10.366;2023-04-01T19:11:26;97009.03;;;7.83;84.33
14790;BME280;7486;51.010;10.366;2023-04-01T19:24:07;97021.19;;;7.84;83.88
14790;BME280;7486;51.010;10.366;2023-04-01T19:27:10;97020.69;;;7.93;83.77
14790;BME280;7486;51.010;10.366;2023-04-01T19:38:39;97036.75;;;8.10;83.00
14790;BME280;7486;51.010;10.366;2023-04-01T19:41:40;97045.84;;;8.14;82.44
14790;BME280;7486;51.010;10.366;2023-04-01T20:00:22;97067.81;;;7.83;83.01
14790;BME280;7486;51.010;10.366;2023-04-01T20:06:14;97022.66;;;7.55;84.42
14790;BME280;7486;51.010;10.366;2023-04-01T20:09:15;97086.66;;;8.05;83.63
14790;BME280;7486;51.010;10.366;2023-04-01T20:15:30;97057.34;;;7.77;83.28
14790;BME280;7486;51.010;10.366;2023-04-01T20:18:54;97104.66;;;7.90;82.96
14790;BME280;7486;51.010;10.366;2023-04-01T20:21:47;97050.53;;;7.38;82.70
14790;BME280;7486;51.010;10.366;2023-04-01T20:27:22;97114.56;;;7.38;83.64
14790;BME280;7486;51.010;10.366;2023-04-01T20:39:08;97126.63;;;7.84;80.86
14790;BME280;7486;51.010;10.366;2023-04-01T20:48:31;97142.88;;;7.81;80.07
14790;BME280;7486;51.010;10.366;2023-04-01T20:51:23;97132.91;;;7.83;79.90
14790;BME280;7486;51.010;10.366;2023-04-01T20:57:46;97141.56;;;7.90;79.42
14790;BME280;7486;51.010;10.366;2023-04-01T21:00:54;97132.31;;;7.81;79.28
14790;BME280;7486;51.010;10.366;2023-04-01T21:03:53;97156.16;;;7.92;79.07
14790;BME280;7486;51.010;10.366;2023-04-01T21:19:16;97156.06;;;7.74;79.30
14790;BME280;7486;51.010;10.366;2023-04-01T21:22:18;97175.66;;;7.85;79.66
14790;BME280;7486;51.010;10.366;2023-04-01T21:25:21;97180.34;;;7.83;79.52
14790;BME280;7486;51.010;10.366;2023-04-01T21:28:11;97181.56;;;7.87;79.51
14790;BME280;7486;51.010;10.366;2023-04-01T21:49:09;97220.13;;;7.75;78.99
14790;BME280;7486;51.010;10.366;2023-04-01T21:52:14;97225.63;;;7.73;79.82
14790;BME280;7486;51.010;10.366;2023-04-01T22:07:59;97240.28;;;7.62;80.18
14790;BME280;7486;51.010;10.366;2023-04-01T22:10:59;97243.31;;;7.66;80.20
14790;BME280;7486;51.010;10.366;2023-04-01T22:13:53;97249.78;;;7.70;80.20
14790;BME280;7486;51.010;10.366;2023-04-01T22:16:53;97244.91;;;7.74;79.77
14790;BME280;7486;51.010;10.366;2023-04-01T22:19:55;97250.16;;;7.74;80.07
14790;BME280;7486;51.010;10.366;2023-04-01T22:29:09;97264.13;;;7.74;80.01
14790;BME280;7486;51.010;10.366;2023-04-01T22:35:08;97212.28;;;7.24;80.31
14790;BME280;7486;51.010;10.366;2023-04-01T22:43:56;97292.88;;;5.20;87.26
14790;BME280;7486;51.010;10.366;2023-04-01T22:46:51;97311.34;;;4.77;89.71
14790;BME280;7486;51.010;10.366;2023-04-01T22:49:43;97325.66;;;4.47;92.49
14790;BME280;7486;51.010;10.366;2023-04-01T22:52:50;97323.63;;;4.21;94.14
14790;BME280;7486;51.010;10.366;2023-04-01T22:55:42;97333.22;;;4.14;94.52
14790;BME280;7486;51.010;10.366;2023-04-01T22:58:48;97331.84;;;3.97;96.12
14790;BME280;7486;51.010;10.366;2023-04-01T23:01:49;97344.78;;;4.05;95.62
14790;BME280;7486;51.010;10.366;2023-04-01T23:04:39;97350.28;;;3.89;97.10
14790;BME280;7486;51.010;10.366;2023-04-01T23:10:51;97367.78;;;3.88;97.22
14790;BME280;7486;51.010;10.366;2023-04-01T23:13:43;97365.16;;;3.88;96.48
14790;BME280;7486;51.010;10.366;2023-04-01T23:16:41;97371.44;;;3.73;96.14
14790;BME280;7486;51.010;10.366;2023-04-01T23:19:40;97380.41;;;3.49;97.91
14790;BME280;7486;51.010;10.366;2023-04-01T23:28:52;97400.38;;;2.98;100.00
14790;BME280;7486;51.010;10.366;2023-04-01T23:31:40;97399.38;;;2.99;100.00
14790;BME280;7486;51.010;10.366;2023-04-01T23:34:29;97402.75;;;3.07;99.25
14790;BME280;7486;51.010;10.366;2023-04-01T23:37:15;97411.84;;;2.97;100.00
14790;BME280;7486;51.010;10.366;2023-04-01T23:40:01;97410.56;;;2.93;100.00
14790;BME280;7486;51.010;10.366;2023-04-01T23:42:46;97355.03;;;2.68;99.99
14790;BME280;7486;51.010;10.366;2023-04-01T23:45:31;97429.47;;;3.18;98.02
14790;BME280;7486;51.010;10.366;2023-04-01T23:48:19;97438.00;;;2.97;99.61
14790;BME280;7486;51.010;10.366;2023-04-01T23:51:36;97445.78;;;2.82;99.32
14790;BME280;7486;51.010;10.366;2023-04-01T23:57:16;97447.72;;;2.65;99.06
